Time;durP1;ratioP1;P1;durP2;ratioP2;P2;SDS_P1;SDS_P2;PMS_P1;PMS_P2;Temp;Humidity;BMP_temperature;BMP_pressure;BME280_temperature;BME280_humidity;BME280_pressure;Samples;Min_cycle;Max_cycle;Signal;HPM_P1;HPM_P2
2024/04/13 00:01:12;;;;;;;10.40;9.70;;;16.10;16.40;;;;;;5365949;26;20465;-76
2024/04/13 00:03:39;;;;;;;11.33;10.13;;;16.00;16.30;;;;;;5395958;26;20612;-77
2024/04/13 00:06:05;;;;;;;10.73;9.83;;;16.00;16.40;;;;;;5399551;26;20530;-77
2024/04/13 00:08:30;;;;;;;11.10;10.20;;;16.00;16.40;;;;;;5414993;26;20463;-76
2024/04/13 00:10:56;;;;;;;10.63;9.83;;;15.90;16.50;;;;;;5370952;26;20232;-77
2024/04/13 00:13:21;;;;;;;11.20;10.07;;;15.90;16.60;;;;;;5394655;26;20238;-77
2024/04/13 00:15:57;;;;;;;9.93;9.23;;;15.90;16.80;;;;;;5350480;26;20235;-77
2024/04/13 00:18:23;;;;;;;10.90;10.10;;;15.90;17.00;;;;;;5380895;26;20230;-77
2024/04/13 00:20:48;;;;;;;11.10;10.20;;;15.80;17.60;;;;;;5396292;26;20552;-77
2024/04/13 00:23:15;;;;;;;9.27;8.53;;;15.80;16.90;;;;;;5401325;26;20237;-77
2024/04/13 00:25:40;;;;;;;11.60;10.60;;;15.50;17.70;;;;;;5402830;26;20994;-78
2024/04/13 00:28:07;;;;;;;10.03;9.43;;;15.30;18.50;;;;;;5356086;26;20542;-76
2024/04/13 00:30:33;;;;;;;11.00;10.20;;;15.20;18.40;;;;;;5402563;26;20558;-75
2024/04/13 00:32:59;;;;;;;11.07;10.30;;;15.10;18.30;;;;;;5400677;26;20463;-77
2024/04/13 00:35:24;;;;;;;12.53;11.63;;;15.20;18.40;;;;;;5403817;26;20233;-77
2024/04/13 00:37:50;;;;;;;11.50;10.60;;;15.30;18.50;;;;;;5356198;26;20567;-77
2024/04/13 00:40:15;;;;;;;11.17;10.57;;;15.30;18.50;;;;;;5370036;26;20610;-77
2024/04/13 00:42:41;;;;;;;11.10;10.23;;;15.40;18.40;;;;;;5390694;26;20246;-77
2024/04/13 00:45:07;;;;;;;11.60;10.50;;;15.40;18.70;;;;;;5396205;26;20578;-76
2024/04/13 00:47:34;;;;;;;11.83;10.80;;;15.40;18.00;;;;;;5395969;26;20242;-77
2024/04/13 00:50:11;;;;;;;11.57;10.80;;;15.50;17.90;;;;;;5396720;26;20225;-76
2024/04/13 00:52:41;;;;;;;11.60;10.50;;;15.50;17.80;;;;;;5416164;26;20455;-78
2024/04/13 00:55:07;;;;;;;11.47;10.57;;;15.50;17.70;;;;;;5384250;26;20478;-77
2024/04/13 00:57:36;;;;;;;11.80;10.90;;;15.50;17.90;;;;;;5407560;26;20468;-79
2024/04/13 01:00:05;;;;;;;10.80;10.07;;;15.50;18.00;;;;;;5414318;26;20519;-77
2024/04/13 01:02:31;;;;;;;11.50;10.70;;;15.50;18.10;;;;;;5407693;26;20575;-77
2024/04/13 01:04:57;;;;;;;10.87;10.07;;;15.50;18.10;;;;;;5411305;26;20981;-77
2024/04/13 01:07:24;;;;;;;10.93;9.80;;;15.50;18.30;;;;;;5372314;26;20694;-76
2024/04/13 01:09:50;;;;;;;11.13;10.23;;;15.50;18.40;;;;;;5389865;26;20547;-77
2024/04/13 01:12:16;;;;;;;10.87;10.10;;;15.40;18.40;;;;;;5380232;26;20480;-77
2024/04/13 01:14:41;;;;;;;10.40;9.70;;;15.40;18.50;;;;;;5407774;26;20458;-78
2024/04/13 01:17:07;;;;;;;10.70;9.77;;;15.40;18.60;;;;;;5402650;26;20280;-77
2024/04/13 01:19:33;;;;;;;10.43;9.57;;;15.40;18.50;;;;;;5411955;26;20263;-77
2024/04/13 01:22:00;;;;;;;10.77;9.97;;;15.40;18.50;;;;;;5400139;26;20530;-78
2024/04/13 01:24:26;;;;;;;11.97;11.07;;;15.40;18.50;;;;;;5403886;26;20793;-76
2024/04/13 01:26:52;;;;;;;11.60;10.70;;;15.40;18.50;;;;;;5376547;26;20829;-78
2024/04/13 01:29:18;;;;;;;12.30;11.13;;;15.40;19.10;;;;;;5396747;26;20547;-77
2024/04/13 01:31:43;;;;;;;12.27;11.37;;;15.30;18.50;;;;;;5408934;26;20520;-77
2024/04/13 01:34:09;;;;;;;10.93;10.13;;;15.40;18.60;;;;;;5399747;26;20245;-78
2024/04/13 01:36:36;;;;;;;10.93;10.23;;;15.40;18.50;;;;;;5383536;26;20234;-76
2024/04/13 01:39:10;;;;;;;11.70;10.80;;;15.40;18.50;;;;;;5401186;26;20235;-77
2024/04/13 01:41:45;;;;;;;10.80;10.10;;;15.40;18.60;;;;;;5387271;26;20464;-76
2024/04/13 01:44:11;;;;;;;10.87;10.07;;;15.40;18.50;;;;;;5388300;26;20515;-77
2024/04/13 01:46:37;;;;;;;11.67;10.77;;;15.30;18.50;;;;;;5359878;26;20541;-77
2024/04/13 01:49:04;;;;;;;10.93;10.00;;;15.30;18.50;;;;;;5378163;26;20467;-77
2024/04/13 01:51:30;;;;;;;10.83;10.00;;;15.30;18.50;;;;;;5403442;26;20268;-77
2024/04/13 01:53:56;;;;;;;12.17;10.90;;;15.30;18.80;;;;;;5387602;26;21059;-78
2024/04/13 01:56:22;;;;;;;10.63;9.93;;;15.30;18.90;;;;;;5395436;26;20452;-77
2024/04/13 01:58:48;;;;;;;11.77;10.97;;;15.30;18.90;;;;;;5376227;26;20350;-77
2024/04/13 02:01:13;;;;;;;11.43;10.63;;;15.20;18.90;;;;;;5380637;26;20480;-78
2024/04/13 02:03:39;;;;;;;12.07;11.27;;;15.20;18.90;;;;;;5404032;26;20233;-77
2024/04/13 02:06:04;;;;;;;12.33;11.53;;;15.20;18.90;;;;;;5368463;26;20254;-77
2024/04/13 02:08:33;;;;;;;11.57;10.73;;;15.30;18.80;;;;;;5414284;26;20229;-77
2024/04/13 02:10:59;;;;;;;11.43;10.63;;;15.20;18.80;;;;;;5399296;26;20372;-77
2024/04/13 02:13:25;;;;;;;11.50;10.80;;;15.10;19.00;;;;;;5381416;26;21070;-77
2024/04/13 02:15:50;;;;;;;11.37;10.57;;;15.10;19.00;;;;;;5395590;26;20459;-77
2024/04/13 02:18:17;;;;;;;11.90;10.80;;;15.10;19.00;;;;;;5399008;26;20273;-77
2024/04/13 02:20:43;;;;;;;12.00;11.00;;;15.10;19.00;;;;;;5397122;26;20510;-77
2024/04/13 02:23:09;;;;;;;10.93;10.13;;;15.10;19.00;;;;;;5413992;26;20455;-77
2024/04/13 02:25:36;;;;;;;11.33;10.60;;;15.10;19.20;;;;;;5371922;26;20919;-76
2024/04/13 02:28:02;;;;;;;11.23;10.43;;;15.10;19.30;;;;;;5417522;26;20471;-77
2024/04/13 02:30:30;;;;;;;11.30;10.50;;;15.10;19.40;;;;;;5403348;26;20509;-76
2024/04/13 02:32:55;;;;;;;9.87;9.10;;;15.10;19.50;;;;;;5404298;26;20510;-78
2024/04/13 02:35:21;;;;;;;11.97;11.17;;;15.00;19.60;;;;;;5384822;26;20465;-77
2024/04/13 02:37:46;;;;;;;10.47;9.83;;;15.00;19.60;;;;;;5409775;26;20333;-77
2024/04/13 02:40:16;;;;;;;11.63;10.63;;;15.00;19.80;;;;;;5388116;26;20622;-76
2024/04/13 02:42:45;;;;;;;11.77;10.67;;;15.00;19.80;;;;;;5404632;26;20234;-77
2024/04/13 02:45:10;;;;;;;10.97;10.00;;;15.00;19.70;;;;;;5404117;26;20518;-77
2024/04/13 02:47:37;;;;;;;11.37;10.43;;;15.10;19.50;;;;;;5411183;26;20468;-77
2024/04/13 02:50:03;;;;;;;11.37;10.37;;;15.10;19.30;;;;;;5398332;26;20231;-77
2024/04/13 02:52:29;;;;;;;12.00;11.00;;;15.10;19.30;;;;;;5417107;26;20523;-78
2024/04/13 02:54:55;;;;;;;10.57;9.90;;;15.10;19.40;;;;;;5373083;26;20486;-76
2024/04/13 02:57:21;;;;;;;10.40;9.50;;;15.10;19.40;;;;;;5398606;26;20521;-76
2024/04/13 02:59:46;;;;;;;11.93;11.13;;;15.00;19.50;;;;;;5382044;26;20264;-77
2024/04/13 03:02:12;;;;;;;12.43;11.53;;;15.00;19.60;;;;;;5399234;26;20230;-76
2024/04/13 03:04:38;;;;;;;11.43;10.50;;;14.90;19.60;;;;;;5371215;26;20280;-77
2024/04/13 03:07:04;;;;;;;12.50;11.70;;;14.90;19.80;;;;;;5402368;26;20941;-79
2024/04/13 03:09:29;;;;;;;11.83;10.93;;;14.90;19.90;;;;;;5352185;26;20269;-77
2024/04/13 03:11:56;;;;;;;10.90;9.97;;;14.90;19.90;;;;;;5352091;26;20468;-78
2024/04/13 03:14:22;;;;;;;10.90;10.10;;;14.90;19.80;;;;;;5412828;26;20249;-77
2024/04/13 03:16:47;;;;;;;10.13;9.53;;;14.90;19.90;;;;;;5383630;26;20544;-78
2024/04/13 03:19:15;;;;;;;9.43;8.83;;;14.80;19.90;;;;;;5414334;26;20563;-77
2024/04/13 03:21:41;;;;;;;9.67;8.93;;;14.80;20.00;;;;;;5417860;26;20234;-77
2024/04/13 03:24:07;;;;;;;9.90;9.20;;;14.80;20.00;;;;;;5402022;26;20481;-76
2024/04/13 03:26:33;;;;;;;10.20;9.40;;;14.80;20.00;;;;;;5409741;26;20351;-76
2024/04/13 03:28:58;;;;;;;9.97;9.20;;;14.80;20.10;;;;;;5396171;26;20999;-76
2024/04/13 03:31:24;;;;;;;11.07;10.27;;;14.80;20.10;;;;;;5379788;26;20227;-77
2024/04/13 03:33:49;;;;;;;11.17;10.27;;;14.80;20.10;;;;;;5394143;26;20740;-77
2024/04/13 03:36:15;;;;;;;10.00;9.40;;;14.80;20.10;;;;;;5418242;26;20233;-77
2024/04/13 03:38:40;;;;;;;9.97;9.30;;;14.70;20.10;;;;;;5403812;26;20233;-78
2024/04/13 03:41:07;;;;;;;11.20;10.37;;;14.70;20.10;;;;;;5416506;26;20241;-78
2024/04/13 03:43:33;;;;;;;10.17;9.33;;;14.80;19.90;;;;;;5391269;26;20267;-77
2024/04/13 03:45:59;;;;;;;11.53;10.47;;;14.80;20.00;;;;;;5406918;26;20460;-77
2024/04/13 03:48:24;;;;;;;10.87;10.07;;;14.70;20.20;;;;;;5384888;26;20527;-78
2024/04/13 03:50:51;;;;;;;10.20;9.50;;;14.70;20.20;;;;;;5400258;26;20242;-77
2024/04/13 03:53:17;;;;;;;10.97;10.20;;;14.70;20.30;;;;;;5385646;26;20316;-76
2024/04/13 03:55:42;;;;;;;10.30;9.60;;;14.70;20.30;;;;;;5418365;26;20463;-77
2024/04/13 03:58:08;;;;;;;10.00;9.40;;;14.60;20.40;;;;;;5373717;26;20280;-77
2024/04/13 04:00:34;;;;;;;9.73;9.03;;;14.60;20.50;;;;;;5420048;26;20237;-77
2024/04/13 04:02:59;;;;;;;10.87;10.03;;;14.60;20.70;;;;;;5405388;26;20229;-76
2024/04/13 04:05:27;;;;;;;11.17;10.37;;;14.50;20.60;;;;;;5398554;26;20238;-77
2024/04/13 04:07:53;;;;;;;10.53;9.73;;;14.50;20.70;;;;;;5396078;26;20620;-76
2024/04/13 04:10:18;;;;;;;11.03;9.60;;;14.50;20.70;;;;;;5382189;26;20456;-76
2024/04/13 04:12:44;;;;;;;9.73;9.13;;;14.50;20.70;;;;;;5391677;26;20225;-77
2024/04/13 04:15:09;;;;;;;10.10;9.40;;;14.50;20.80;;;;;;5356282;26;20706;-76
2024/04/13 04:17:35;;;;;;;11.07;10.37;;;14.50;20.80;;;;;;5396881;26;20230;-78
2024/04/13 04:20:00;;;;;;;10.83;9.90;;;14.50;20.90;;;;;;5415171;26;20233;-76
2024/04/13 04:22:28;;;;;;;11.00;9.93;;;14.50;21.00;;;;;;5399314;26;20238;-77
2024/04/13 04:24:54;;;;;;;9.57;8.87;;;14.50;20.80;;;;;;5393692;26;20744;-77
2024/04/13 04:27:20;;;;;;;11.23;10.40;;;14.40;20.80;;;;;;5398833;26;20509;-77
2024/04/13 04:29:46;;;;;;;10.93;9.87;;;14.40;20.90;;;;;;5418568;26;20256;-77
2024/04/13 04:32:12;;;;;;;11.53;10.73;;;14.40;21.00;;;;;;5387977;26;20275;-77
2024/04/13 04:34:38;;;;;;;9.87;9.23;;;14.40;21.00;;;;;;5369185;26;20576;-77
2024/04/13 04:37:03;;;;;;;10.47;9.67;;;14.40;21.00;;;;;;5398242;26;20467;-78
2024/04/13 04:39:29;;;;;;;10.67;9.97;;;14.40;21.00;;;;;;5381694;26;20281;-77
2024/04/13 04:41:55;;;;;;;10.27;9.63;;;14.40;21.10;;;;;;5391869;26;20246;-77
2024/04/13 04:44:21;;;;;;;10.07;9.37;;;14.40;21.10;;;;;;5398511;26;20616;-77
2024/04/13 04:46:47;;;;;;;10.50;9.80;;;14.40;21.00;;;;;;5373408;26;20511;-76
2024/04/13 04:49:12;;;;;;;11.27;10.10;;;14.40;20.90;;;;;;5409559;26;20268;-77
2024/04/13 04:51:40;;;;;;;10.60;9.60;;;14.40;21.00;;;;;;5395012;26;20467;-76
2024/04/13 04:54:08;;;;;;;10.80;10.20;;;14.40;21.00;;;;;;5380557;26;20574;-77
2024/04/13 04:56:34;;;;;;;11.03;10.30;;;14.40;21.00;;;;;;5396172;26;20571;-77
2024/04/13 04:59:00;;;;;;;10.40;9.90;;;14.40;20.90;;;;;;5406593;26;20467;-78
2024/04/13 05:01:25;;;;;;;11.17;10.40;;;14.40;20.90;;;;;;5413274;26;20507;-78
2024/04/13 05:03:51;;;;;;;10.37;9.67;;;14.40;21.00;;;;;;5401541;26;20558;-76
2024/04/13 05:06:18;;;;;;;10.27;9.57;;;14.40;21.00;;;;;;5382988;26;20280;-77
2024/04/13 05:08:45;;;;;;;10.37;9.57;;;14.40;21.00;;;;;;5395891;26;20234;-77
2024/04/13 05:11:11;;;;;;;11.40;10.60;;;14.40;20.90;;;;;;5396798;26;21212;-77
2024/04/13 05:13:37;;;;;;;10.07;9.27;;;14.40;21.10;;;;;;5364669;26;20526;-77
2024/04/13 05:16:05;;;;;;;11.47;10.33;;;14.50;21.20;;;;;;5363932;26;20241;-76
2024/04/13 05:18:30;;;;;;;10.63;9.93;;;14.40;21.10;;;;;;5365778;26;20548;-77
2024/04/13 05:20:56;;;;;;;11.23;10.50;;;14.50;21.20;;;;;;5396971;26;20528;-76
2024/04/13 05:23:21;;;;;;;11.30;10.30;;;14.40;21.20;;;;;;5396920;26;20246;-77
2024/04/13 05:25:47;;;;;;;11.47;10.47;;;14.40;21.10;;;;;;5392323;26;20279;-76
2024/04/13 05:28:12;;;;;;;11.70;10.40;;;14.40;21.00;;;;;;5417299;26;20331;-77
2024/04/13 05:30:38;;;;;;;10.73;9.83;;;14.50;20.80;;;;;;5403024;26;20231;-76
2024/04/13 05:33:04;;;;;;;10.20;9.27;;;14.40;20.70;;;;;;5402535;26;20351;-77
2024/04/13 05:35:30;;;;;;;9.90;8.97;;;14.50;20.70;;;;;;5402792;26;20463;-77
2024/04/13 05:37:55;;;;;;;11.90;10.00;;;14.40;20.80;;;;;;5406115;26;20512;-77
2024/04/13 05:40:24;;;;;;;10.43;9.63;;;14.40;20.80;;;;;;5382997;26;20230;-78
2024/04/13 05:42:51;;;;;;;10.60;9.67;;;14.40;20.80;;;;;;5375959;26;20238;-76
2024/04/13 05:55:44;;;;;;;10.90;9.67;;;14.40;21.00;;;;;;5351579;26;20535;-80
2024/04/13 05:58:10;;;;;;;10.67;9.80;;;14.40;21.00;;;;;;5323218;26;20994;-82
2024/04/13 06:00:35;;;;;;;12.10;11.10;;;14.40;21.20;;;;;;5294959;26;20528;-81
2024/04/13 06:03:04;;;;;;;11.07;10.47;;;14.40;21.20;;;;;;5323134;26;20279;-82
2024/04/13 06:05:29;;;;;;;11.50;10.50;;;14.20;21.50;;;;;;5342554;26;20232;-82
2024/04/13 06:07:55;;;;;;;11.00;10.20;;;14.20;20.90;;;;;;5347090;26;20868;-80
2024/04/13 06:10:21;;;;;;;11.87;11.17;;;14.10;21.60;;;;;;5353988;26;20269;-80
2024/04/13 06:12:48;;;;;;;12.10;10.97;;;13.90;21.80;;;;;;5330752;26;20608;-81
2024/04/13 06:15:14;;;;;;;10.90;9.93;;;14.00;22.10;;;;;;5303197;26;20481;-81
2024/04/13 06:17:42;;;;;;;11.00;10.30;;;14.10;22.20;;;;;;5322477;26;20996;-80
2024/04/13 06:24:10;;;;;;;12.70;11.60;;;14.10;21.90;;;;;;5315137;26;20495;-78
2024/04/13 08:03:45;;;;;;;12.37;11.40;;;16.00;18.90;;;;;;5407181;26;20534;-79
2024/04/13 08:13:01;;;;;;;11.73;10.73;;;16.20;19.10;;;;;;5284493;27;20582;-79
2024/04/13 08:22:44;;;;;;;11.93;10.93;;;16.50;18.00;;;;;;5138142;27;20610;-77
2024/04/13 08:25:47;;;;;;;12.73;11.60;;;16.60;17.90;;;;;;5143432;27;20580;-78
2024/04/13 08:28:16;;;;;;;12.40;11.40;;;16.70;17.50;;;;;;5096866;27;21075;-77
2024/04/13 08:30:57;;;;;;;10.70;9.97;;;16.70;17.90;;;;;;5379572;26;20555;-77
2024/04/13 08:33:30;;;;;;;10.87;10.27;;;16.80;17.20;;;;;;5425319;26;20535;-78
2024/04/13 08:39:20;;;;;;;11.20;10.40;;;17.00;17.10;;;;;;5417381;26;20471;-78
2024/04/13 08:42:49;;;;;;;11.70;10.90;;;17.10;16.80;;;;;;5423517;26;20559;-79
2024/04/13 08:45:26;;;;;;;11.33;10.40;;;17.20;16.90;;;;;;5452229;21;20526;-79
2024/04/13 08:51:34;;;;;;;10.87;9.87;;;17.50;17.00;;;;;;5309012;27;20502;-78
2024/04/13 08:54:53;;;;;;;10.80;9.90;;;17.70;16.40;;;;;;5321205;26;20511;-79
2024/04/13 08:58:03;;;;;;;10.97;10.10;;;17.80;16.20;;;;;;5224356;27;20467;-77
2024/04/13 09:01:25;;;;;;;11.43;10.43;;;18.00;16.10;;;;;;5182249;27;20472;-79
2024/04/13 09:05:06;;;;;;;;;;;;;;;;;;;;;
2024/04/13 09:08:26;;;;;;;;;;;;;;;;;;;;;
2024/04/13 09:11:27;;;;;;;10.00;9.40;;;18.50;15.30;;;;;;5237289;27;20889;-77
2024/04/13 09:14:33;;;;;;;9.50;8.90;;;18.70;14.80;;;;;;5276520;27;20479;-78
2024/04/13 09:17:01;;;;;;;8.87;8.30;;;18.80;14.70;;;;;;5231833;27;20470;-80
2024/04/13 09:19:30;;;;;;;9.60;8.93;;;19.10;13.80;;;;;;5307592;26;20513;-80
2024/04/13 09:23:10;;;;;;;9.60;8.83;;;19.40;13.40;;;;;;5336698;26;20471;-81
2024/04/13 09:26:30;;;;;;;9.80;9.03;;;19.70;12.90;;;;;;5245501;27;20528;-78
2024/04/13 09:33:12;;;;;;;8.83;8.23;;;20.30;11.90;;;;;;5239179;27;20512;-80
2024/04/13 09:36:12;;;;;;;9.37;8.70;;;20.50;11.60;;;;;;5180185;27;20475;-80
2024/04/13 09:38:44;;;;;;;10.43;9.10;;;20.60;11.30;;;;;;5271523;27;20999;-80
2024/04/13 09:41:20;;;;;;;9.03;8.53;;;20.70;10.90;;;;;;5255595;27;20474;-81
2024/04/13 09:44:28;;;;;;;9.30;8.60;;;20.80;11.00;;;;;;5378797;21;20473;-80
2024/04/13 09:47:03;;;;;;;8.93;8.33;;;20.90;11.30;;;;;;5323240;26;20493;-80
2024/04/13 09:50:50;;;;;;;9.20;8.50;;;21.00;10.60;;;;;;5351140;26;20510;-77
2024/04/13 09:54:03;;;;;;;8.60;8.10;;;21.20;10.40;;;;;;5164808;27;20862;-82
2024/04/13 09:59:53;;;;;;;7.87;7.43;;;21.30;9.90;;;;;;5179181;27;20605;-78
2024/04/13 10:02:38;;;;;;;7.97;7.50;;;21.40;9.80;;;;;;5182683;27;21110;-79
2024/04/13 10:05:20;;;;;;;8.57;8.07;;;21.50;9.70;;;;;;5275809;27;20563;-79
2024/04/13 10:07:46;;;;;;;7.70;7.20;;;21.60;9.60;;;;;;5318067;26;21113;-77
2024/04/13 10:10:13;;;;;;;8.20;7.60;;;21.70;9.20;;;;;;5310924;27;20466;-78
2024/04/13 10:12:42;;;;;;;7.70;7.30;;;21.70;8.90;;;;;;5284171;27;21270;-77
2024/04/13 10:15:12;;;;;;;8.30;7.67;;;21.80;8.50;;;;;;5314627;26;20871;-77
2024/04/13 10:17:40;;;;;;;7.93;7.50;;;21.80;9.00;;;;;;5315464;27;20548;-77
2024/04/13 10:20:07;;;;;;;8.20;7.40;;;21.90;8.50;;;;;;5282280;27;20572;-77
2024/04/13 10:22:33;;;;;;;7.83;7.33;;;21.90;8.60;;;;;;5311760;27;20523;-78
2024/04/13 10:25:08;;;;;;;8.50;8.10;;;21.90;8.50;;;;;;5280999;27;20479;-78
2024/04/13 10:27:34;;;;;;;8.67;8.07;;;22.00;8.40;;;;;;5313726;27;20497;-78
2024/04/13 10:30:01;;;;;;;8.83;8.00;;;22.00;8.10;;;;;;5313684;26;20459;-79
2024/04/13 10:32:30;;;;;;;7.50;7.10;;;22.00;8.20;;;;;;5314885;27;20451;-78
2024/04/13 10:35:09;;;;;;;7.77;7.37;;;22.00;8.20;;;;;;5315499;26;20459;-79
2024/04/13 10:37:35;;;;;;;8.33;7.57;;;22.00;8.10;;;;;;5316063;27;20503;-79
2024/04/13 10:40:05;;;;;;;7.50;6.90;;;22.10;8.20;;;;;;5321388;27;20502;-79
2024/04/13 10:42:39;;;;;;;7.43;6.93;;;22.00;7.70;;;;;;5289768;27;20795;-79
2024/04/13 10:45:11;;;;;;;7.13;6.70;;;22.10;8.20;;;;;;5317284;26;20511;-78
2024/04/13 10:47:44;;;;;;;6.70;6.30;;;22.10;7.60;;;;;;5313058;27;20467;-79
2024/04/13 10:50:14;;;;;;;7.30;6.83;;;22.00;8.10;;;;;;5304330;27;20511;-78
2024/04/13 10:52:40;;;;;;;7.77;7.37;;;22.00;8.50;;;;;;5315343;27;20532;-78
2024/04/13 10:55:06;;;;;;;7.40;6.90;;;22.10;7.50;;;;;;5308198;27;20457;-81
2024/04/13 10:57:32;;;;;;;6.97;6.57;;;22.10;7.90;;;;;;5309109;27;20829;-79
2024/04/13 11:00:16;;;;;;;8.47;8.07;;;22.10;7.80;;;;;;5317098;27;20515;-83
2024/04/13 11:02:42;;;;;;;7.90;7.40;;;22.10;7.70;;;;;;5312967;26;20227;-80
2024/04/13 11:05:14;;;;;;;7.57;7.07;;;22.10;7.50;;;;;;5314391;26;20998;-79
2024/04/13 11:07:41;;;;;;;7.80;7.40;;;22.00;7.50;;;;;;5330200;26;20231;-79
2024/04/13 11:10:07;;;;;;;7.63;7.27;;;22.10;7.90;;;;;;5306133;26;20570;-80
2024/04/13 11:12:32;;;;;;;7.63;7.03;;;22.10;8.00;;;;;;5307525;27;20479;-79
2024/04/13 11:37:53;;;;;;;6.17;5.63;;;22.30;7.40;;;;;;2530584;24;20491;-77
2024/04/13 11:41:34;;;;;;;;;;;;;;;;;;;;;
2024/04/13 12:08:52;;;;;;;6.97;6.47;;;22.40;6.70;;;;;;5036566;28;20679;-79
2024/04/13 12:11:33;;;;;;;6.20;5.90;;;22.40;6.90;;;;;;5077419;28;20535;-80
2024/04/13 16:22:49;;;;;;;;;;;;;;;;;;;;;
2024/04/13 17:44:18;;;;;;;7.57;6.87;;;22.10;14.10;;;;;;1551128;21;20983;-79
2024/04/13 17:46:44;;;;;;;7.00;6.70;;;22.10;14.40;;;;;;5347759;26;21060;-78
2024/04/13 17:49:09;;;;;;;8.20;7.70;;;22.00;14.40;;;;;;5323067;26;20236;-79
2024/04/13 17:51:35;;;;;;;8.67;7.97;;;21.90;14.40;;;;;;5356378;26;20266;-78
2024/04/13 17:54:00;;;;;;;8.87;8.13;;;21.80;14.90;;;;;;5372773;26;20233;-79
2024/04/13 17:56:26;;;;;;;10.17;9.27;;;21.70;15.30;;;;;;5391585;26;20352;-79
2024/04/13 17:58:51;;;;;;;11.33;9.73;;;21.60;15.50;;;;;;5391043;26;20230;-80
2024/04/13 18:01:17;;;;;;;12.40;11.40;;;21.50;15.80;;;;;;5359972;26;20364;-78
2024/04/13 18:03:44;;;;;;;10.30;9.60;;;21.50;16.20;;;;;;5391573;26;20234;-77
2024/04/13 18:06:10;;;;;;;10.90;10.20;;;21.50;16.60;;;;;;5355281;26;20243;-79
2024/04/13 18:08:35;;;;;;;11.17;10.30;;;21.30;16.80;;;;;;5347245;26;21050;-78
2024/04/13 18:11:01;;;;;;;11.33;10.37;;;21.30;17.30;;;;;;5325105;26;20298;-78
2024/04/13 18:13:27;;;;;;;9.90;9.30;;;21.20;17.50;;;;;;5347449;26;20888;-78
2024/04/13 18:15:53;;;;;;;10.53;9.63;;;21.20;17.80;;;;;;5346238;26;20227;-78
2024/04/13 18:18:19;;;;;;;11.20;10.50;;;21.20;18.20;;;;;;5344745;26;20508;-79
2024/04/13 18:20:44;;;;;;;11.13;10.33;;;21.10;18.30;;;;;;5343503;26;20283;-79
2024/04/13 18:23:10;;;;;;;12.30;11.13;;;21.00;18.60;;;;;;5348819;26;20754;-78
2024/04/13 18:25:37;;;;;;;12.00;11.20;;;21.00;18.90;;;;;;5351062;26;20240;-80
2024/04/13 18:28:03;;;;;;;11.40;10.60;;;20.90;19.00;;;;;;5321477;26;20967;-78
2024/04/13 18:30:28;;;;;;;11.83;10.80;;;20.90;19.40;;;;;;5350440;26;20530;-78
2024/04/13 18:32:54;;;;;;;10.80;10.10;;;20.80;19.40;;;;;;5345508;26;20476;-78
2024/04/13 18:35:19;;;;;;;11.73;11.00;;;20.80;19.70;;;;;;5315426;26;20325;-78
2024/04/13 18:37:45;;;;;;;11.23;10.43;;;20.70;19.90;;;;;;5353954;26;20311;-79
2024/04/13 18:40:11;;;;;;;11.07;10.30;;;20.70;20.10;;;;;;5348564;26;20235;-79
2024/04/13 18:42:36;;;;;;;10.63;9.93;;;20.70;20.10;;;;;;5361092;26;20243;-78
2024/04/13 18:45:04;;;;;;;9.87;9.27;;;20.60;20.30;;;;;;5346502;26;20299;-78
2024/04/13 18:47:29;;;;;;;10.30;9.27;;;20.60;20.50;;;;;;5345935;26;20315;-79
2024/04/13 18:49:55;;;;;;;10.03;9.27;;;20.50;20.70;;;;;;5345103;26;20470;-79
2024/04/13 18:52:20;;;;;;;10.47;9.87;;;20.50;20.70;;;;;;5348594;26;20269;-78
2024/04/13 18:54:46;;;;;;;10.70;10.00;;;20.50;21.00;;;;;;5315139;26;20244;-78
2024/04/13 18:57:12;;;;;;;10.60;9.80;;;20.40;21.00;;;;;;5317821;26;20286;-79
2024/04/13 18:59:37;;;;;;;11.00;10.40;;;20.30;21.20;;;;;;5352590;26;20231;-79
2024/04/13 19:02:03;;;;;;;10.37;9.77;;;20.30;21.40;;;;;;5354621;26;20305;-78
2024/04/13 19:04:29;;;;;;;10.30;9.43;;;20.30;21.80;;;;;;5337855;26;20243;-77
2024/04/13 19:06:54;;;;;;;9.97;9.27;;;20.30;21.90;;;;;;5351425;26;20246;-79
2024/04/13 19:09:20;;;;;;;10.23;9.60;;;20.30;21.90;;;;;;5381846;26;20234;-81
2024/04/13 19:11:45;;;;;;;9.10;8.40;;;20.20;21.80;;;;;;5350945;26;20785;-82
2024/04/13 19:14:11;;;;;;;10.10;9.50;;;20.20;21.80;;;;;;5326418;26;20258;-79
2024/04/13 19:16:36;;;;;;;11.27;10.27;;;20.10;22.10;;;;;;5325422;26;20243;-78
2024/04/13 19:19:02;;;;;;;10.93;10.13;;;20.10;22.40;;;;;;5356236;26;20279;-79
2024/04/13 19:21:28;;;;;;;10.23;9.53;;;20.00;22.30;;;;;;5339727;26;20582;-77
2024/04/13 19:23:53;;;;;;;10.93;10.23;;;20.00;22.50;;;;;;5339269;26;20236;-78
2024/04/13 19:26:20;;;;;;;10.63;9.73;;;20.00;22.60;;;;;;5349390;26;20738;-78
2024/04/13 19:28:45;;;;;;;10.23;9.63;;;19.90;22.70;;;;;;5351626;26;20232;-77
2024/04/13 19:31:11;;;;;;;10.57;9.87;;;19.90;22.70;;;;;;5353085;26;20465;-77
2024/04/13 19:33:37;;;;;;;9.83;9.33;;;19.90;22.70;;;;;;5351798;26;20625;-78
2024/04/13 19:36:02;;;;;;;11.67;10.87;;;19.90;22.90;;;;;;5349556;26;21084;-78
2024/04/13 19:38:28;;;;;;;10.80;9.93;;;19.80;22.90;;;;;;5360984;26;20234;-80
2024/04/13 19:40:53;;;;;;;11.03;10.23;;;19.80;23.10;;;;;;5321096;26;20716;-77
2024/04/13 19:43:19;;;;;;;12.33;11.53;;;19.80;23.40;;;;;;5341366;26;20239;-78
2024/04/13 19:45:45;;;;;;;12.30;11.50;;;19.70;23.50;;;;;;5320892;26;20370;-78
2024/04/13 19:48:11;;;;;;;11.97;11.10;;;19.70;23.80;;;;;;5337131;26;21028;-77
2024/04/13 19:50:37;;;;;;;11.37;10.57;;;19.60;23.80;;;;;;5328731;26;20920;-76
2024/04/13 19:53:05;;;;;;;11.70;10.77;;;19.60;23.80;;;;;;5335474;26;20714;-77
2024/04/13 19:55:34;;;;;;;11.17;10.57;;;19.60;24.00;;;;;;5338207;26;20605;-78
2024/04/13 19:58:00;;;;;;;11.57;10.93;;;19.60;24.00;;;;;;5340782;26;20921;-77
2024/04/13 20:00:25;;;;;;;12.50;11.70;;;19.50;23.90;;;;;;5331491;26;20470;-77
2024/04/13 20:02:51;;;;;;;12.97;11.83;;;19.50;24.00;;;;;;5357465;26;20324;-79
2024/04/13 20:05:16;;;;;;;12.93;11.93;;;19.50;24.20;;;;;;5316224;26;20239;-77
2024/04/13 20:07:42;;;;;;;12.60;11.60;;;19.50;24.20;;;;;;5344624;26;20236;-77
2024/04/13 20:10:07;;;;;;;12.17;11.37;;;19.50;24.40;;;;;;5330734;26;20265;-77
2024/04/13 20:12:33;;;;;;;11.20;10.50;;;19.40;24.40;;;;;;5326819;26;20270;-77
2024/04/13 20:20:27;;;;;;;12.67;11.77;;;19.40;24.40;;;;;;5347616;26;20530;-78
2024/04/13 20:22:52;;;;;;;12.00;11.20;;;19.30;24.60;;;;;;5328749;26;20479;-76
2024/04/13 20:25:19;;;;;;;11.60;10.80;;;19.30;24.70;;;;;;5362886;26;20248;-77
2024/04/13 20:27:45;;;;;;;12.50;11.63;;;19.30;24.70;;;;;;5346867;26;20289;-77
2024/04/13 20:30:11;;;;;;;11.70;11.00;;;19.30;24.80;;;;;;5346263;26;20469;-79
2024/04/13 20:32:37;;;;;;;12.20;11.30;;;19.30;24.90;;;;;;5347213;26;20810;-77
2024/04/13 20:35:03;;;;;;;12.13;11.20;;;19.20;24.90;;;;;;5361421;26;20246;-76
2024/04/13 20:37:30;;;;;;;11.53;10.53;;;19.20;24.80;;;;;;5346476;26;20592;-77
2024/04/13 20:39:55;;;;;;;9.47;8.87;;;19.20;25.00;;;;;;5359852;26;20234;-77
2024/04/13 20:42:21;;;;;;;10.83;10.17;;;19.10;25.00;;;;;;5381178;26;20515;-76
2024/04/13 20:44:47;;;;;;;11.53;10.60;;;19.10;25.10;;;;;;5325899;26;20293;-78
2024/04/13 20:47:12;;;;;;;10.37;9.77;;;19.10;25.00;;;;;;5347486;26;20486;-78
2024/04/13 20:49:38;;;;;;;10.77;10.07;;;19.00;25.20;;;;;;5355638;26;20234;-77
2024/04/13 20:52:04;;;;;;;11.60;10.80;;;19.00;25.00;;;;;;5381398;26;20242;-78
2024/04/13 20:54:30;;;;;;;11.50;10.87;;;19.00;25.00;;;;;;5365953;26;20242;-78
2024/04/13 20:56:55;;;;;;;12.53;11.63;;;19.00;25.20;;;;;;5359099;26;20235;-77
2024/04/13 20:59:21;;;;;;;11.30;10.60;;;19.00;25.20;;;;;;5337703;26;20317;-78
2024/04/13 21:01:46;;;;;;;11.70;10.60;;;19.00;25.30;;;;;;5347975;26;20270;-77
2024/04/13 21:04:12;;;;;;;11.63;10.43;;;19.00;25.20;;;;;;5346172;26;20235;-76
2024/04/13 21:06:38;;;;;;;11.30;10.57;;;19.00;25.40;;;;;;5345653;26;20227;-77
2024/04/13 21:09:05;;;;;;;11.20;10.50;;;19.00;25.40;;;;;;5335821;26;20232;-77
2024/04/13 21:11:31;;;;;;;10.10;9.50;;;18.90;25.40;;;;;;5342846;26;21054;-78
2024/04/13 21:13:57;;;;;;;11.00;10.37;;;18.90;25.50;;;;;;5342546;26;21166;-76
2024/04/13 21:16:22;;;;;;;10.97;10.07;;;18.90;25.60;;;;;;5341208;26;20477;-79
2024/04/13 21:18:48;;;;;;;11.63;10.83;;;18.90;25.60;;;;;;5358243;26;20230;-76
2024/04/13 21:21:14;;;;;;;12.83;11.60;;;18.90;25.80;;;;;;5322227;26;20251;-77
2024/04/13 21:23:39;;;;;;;11.83;11.03;;;18.90;25.80;;;;;;5345060;26;20235;-76
2024/04/13 21:26:05;;;;;;;11.93;11.03;;;18.80;25.80;;;;;;5304569;26;20326;-76
2024/04/13 21:28:30;;;;;;;13.37;12.03;;;18.80;25.70;;;;;;5320866;26;20269;-77
2024/04/13 21:30:56;;;;;;;13.00;12.10;;;18.80;25.80;;;;;;5364154;26;20234;-78
2024/04/13 21:33:21;;;;;;;13.23;12.43;;;18.80;25.80;;;;;;5377489;26;20242;-76